sensor_id;sensor_type;location;lat;lon;timestamp;P1;durP1;ratioP1;P2;durP2;ratioP2
8755;SDS011;4414;42.670;23.228;2024-02-21T00:01:38;4.35;;;2.75;;
8755;SDS011;4414;42.670;23.228;2024-02-21T00:04:04;4.53;;;3.05;;
8755;SDS011;4414;42.670;23.228;2024-02-21T00:06:29;4.70;;;2.40;;
8755;SDS011;4414;42.670;23.228;2024-02-21T00:08:55;3.85;;;2.10;;
8755;SDS011;4414;42.670;23.228;2024-02-21T00:11:20;6.20;;;2.37;;
8755;SDS011;4414;42.670;23.228;2024-02-21T00:13:45;4.30;;;1.95;;
8755;SDS011;4414;42.670;23.228;2024-02-21T00:16:11;3.53;;;2.28;;
8755;SDS011;4414;42.670;23.228;2024-02-21T00:18:36;3.58;;;2.30;;
8755;SDS011;4414;42.670;23.228;2024-02-21T00:21:02;3.63;;;2.42;;
8755;SDS011;4414;42.670;23.228;2024-02-21T00:23:28;3.53;;;2.30;;
8755;SDS011;4414;42.670;23.228;2024-02-21T00:25:55;3.70;;;2.05;;
8755;SDS011;4414;42.670;23.228;2024-02-21T00:28:20;4.10;;;2.70;;
8755;SDS011;4414;42.670;23.228;2024-02-21T00:30:46;5.75;;;2.95;;
8755;SDS011;4414;42.670;23.228;2024-02-21T00:33:13;5.00;;;2.63;;
8755;SDS011;4414;42.670;23.228;2024-02-21T00:35:38;5.55;;;2.85;;
8755;SDS011;4414;42.670;23.228;2024-02-21T00:38:04;5.03;;;2.38;;
8755;SDS011;4414;42.670;23.228;2024-02-21T00:40:29;7.47;;;2.60;;
8755;SDS011;4414;42.670;23.228;2024-02-21T00:42:55;5.80;;;2.38;;
8755;SDS011;4414;42.670;23.228;2024-02-21T00:45:20;5.10;;;2.90;;
8755;SDS011;4414;42.670;23.228;2024-02-21T00:47:45;6.35;;;2.70;;
8755;SDS011;4414;42.670;23.228;2024-02-21T00:50:11;6.68;;;2.90;;
8755;SDS011;4414;42.670;23.228;2024-02-21T00:52:36;3.83;;;2.67;;
8755;SDS011;4414;42.670;23.228;2024-02-21T00:55:02;5.33;;;3.00;;
8755;SDS011;4414;42.670;23.228;2024-02-21T00:57:27;5.90;;;2.38;;
8755;SDS011;4414;42.670;23.228;2024-02-21T00:59:53;5.03;;;2.70;;
8755;SDS011;4414;42.670;23.228;2024-02-21T01:02:18;6.18;;;2.80;;
8755;SDS011;4414;42.670;23.228;2024-02-21T01:04:44;3.97;;;2.28;;
8755;SDS011;4414;42.670;23.228;2024-02-21T01:07:09;3.85;;;1.85;;
8755;SDS011;4414;42.670;23.228;2024-02-21T01:09:34;4.78;;;2.50;;
8755;SDS011;4414;42.670;23.228;2024-02-21T01:12:00;6.15;;;2.95;;
8755;SDS011;4414;42.670;23.228;2024-02-21T01:14:25;5.40;;;2.85;;
8755;SDS011;4414;42.670;23.228;2024-02-21T01:16:51;4.57;;;2.38;;
8755;SDS011;4414;42.670;23.228;2024-02-21T01:19:16;6.97;;;2.97;;
8755;SDS011;4414;42.670;23.228;2024-02-21T01:21:42;3.78;;;2.72;;
8755;SDS011;4414;42.670;23.228;2024-02-21T01:24:07;3.63;;;1.98;;
8755;SDS011;4414;42.670;23.228;2024-02-21T01:26:32;6.40;;;2.75;;
8755;SDS011;4414;42.670;23.228;2024-02-21T01:28:58;4.63;;;2.38;;
8755;SDS011;4414;42.670;23.228;2024-02-21T01:31:23;4.20;;;2.80;;
8755;SDS011;4414;42.670;23.228;2024-02-21T01:33:49;6.73;;;3.50;;
8755;SDS011;4414;42.670;23.228;2024-02-21T01:36:14;7.05;;;3.88;;
8755;SDS011;4414;42.670;23.228;2024-02-21T01:38:39;6.20;;;2.50;;
8755;SDS011;4414;42.670;23.228;2024-02-21T01:41:05;7.22;;;3.60;;
8755;SDS011;4414;42.670;23.228;2024-02-21T01:43:31;6.85;;;4.20;;
8755;SDS011;4414;42.670;23.228;2024-02-21T01:45:56;7.95;;;4.32;;
8755;SDS011;4414;42.670;23.228;2024-02-21T01:48:22;8.52;;;5.07;;
8755;SDS011;4414;42.670;23.228;2024-02-21T01:50:49;10.38;;;4.40;;
8755;SDS011;4414;42.670;23.228;2024-02-21T01:53:19;7.47;;;4.53;;
8755;SDS011;4414;42.670;23.228;2024-02-21T01:55:47;10.80;;;4.57;;
8755;SDS011;4414;42.670;23.228;2024-02-21T01:58:13;10.63;;;5.10;;
8755;SDS011;4414;42.670;23.228;2024-02-21T02:00:41;7.40;;;4.38;;
8755;SDS011;4414;42.670;23.228;2024-02-21T02:03:11;6.72;;;3.95;;
8755;SDS011;4414;42.670;23.228;2024-02-21T02:05:44;8.82;;;4.68;;
8755;SDS011;4414;42.670;23.228;2024-02-21T02:08:13;13.13;;;4.78;;
8755;SDS011;4414;42.670;23.228;2024-02-21T02:10:40;11.73;;;6.18;;
8755;SDS011;4414;42.670;23.228;2024-02-21T02:13:06;8.68;;;5.13;;
8755;SDS011;4414;42.670;23.228;2024-02-21T02:15:44;8.88;;;4.50;;
8755;SDS011;4414;42.670;23.228;2024-02-21T02:18:11;10.70;;;5.40;;
8755;SDS011;4414;42.670;23.228;2024-02-21T02:20:37;11.50;;;5.40;;
8755;SDS011;4414;42.670;23.228;2024-02-21T02:25:36;13.10;;;6.25;;
8755;SDS011;4414;42.670;23.228;2024-02-21T02:28:03;12.35;;;6.15;;
8755;SDS011;4414;42.670;23.228;2024-02-21T02:30:40;10.27;;;5.40;;
8755;SDS011;4414;42.670;23.228;2024-02-21T02:33:06;9.32;;;4.97;;
8755;SDS011;4414;42.670;23.228;2024-02-21T02:35:31;10.23;;;6.35;;
8755;SDS011;4414;42.670;23.228;2024-02-21T02:37:57;12.95;;;6.68;;
8755;SDS011;4414;42.670;23.228;2024-02-21T02:40:23;11.68;;;5.22;;
8755;SDS011;4414;42.670;23.228;2024-02-21T02:42:49;10.13;;;5.35;;
8755;SDS011;4414;42.670;23.228;2024-02-21T02:45:16;13.75;;;5.32;;
8755;SDS011;4414;42.670;23.228;2024-02-21T02:47:43;12.70;;;5.55;;
8755;SDS011;4414;42.670;23.228;2024-02-21T02:50:10;11.02;;;5.57;;
8755;SDS011;4414;42.670;23.228;2024-02-21T02:52:36;10.30;;;4.93;;
8755;SDS011;4414;42.670;23.228;2024-02-21T02:55:01;9.35;;;4.35;;
8755;SDS011;4414;42.670;23.228;2024-02-21T02:57:27;10.30;;;5.47;;
8755;SDS011;4414;42.670;23.228;2024-02-21T02:59:52;9.88;;;5.53;;
8755;SDS011;4414;42.670;23.228;2024-02-21T03:02:18;9.05;;;5.18;;
8755;SDS011;4414;42.670;23.228;2024-02-21T03:04:43;10.05;;;6.07;;
8755;SDS011;4414;42.670;23.228;2024-02-21T03:07:09;10.57;;;5.43;;
8755;SDS011;4414;42.670;23.228;2024-02-21T03:09:38;8.80;;;4.88;;
8755;SDS011;4414;42.670;23.228;2024-02-21T03:12:04;12.18;;;5.43;;
8755;SDS011;4414;42.670;23.228;2024-02-21T03:14:31;10.68;;;5.90;;
8755;SDS011;4414;42.670;23.228;2024-02-21T03:17:00;16.75;;;6.55;;
8755;SDS011;4414;42.670;23.228;2024-02-21T03:19:26;11.23;;;6.07;;
8755;SDS011;4414;42.670;23.228;2024-02-21T03:21:52;10.27;;;4.97;;
8755;SDS011;4414;42.670;23.228;2024-02-21T03:24:21;11.98;;;5.53;;
8755;SDS011;4414;42.670;23.228;2024-02-21T03:26:47;9.13;;;5.20;;
8755;SDS011;4414;42.670;23.228;2024-02-21T03:29:14;11.32;;;5.55;;
8755;SDS011;4414;42.670;23.228;2024-02-21T03:31:40;15.43;;;5.70;;
8755;SDS011;4414;42.670;23.228;2024-02-21T03:34:05;8.60;;;5.70;;
8755;SDS011;4414;42.670;23.228;2024-02-21T03:36:30;11.32;;;6.13;;
8755;SDS011;4414;42.670;23.228;2024-02-21T03:38:56;10.23;;;5.65;;
8755;SDS011;4414;42.670;23.228;2024-02-21T03:41:21;14.32;;;6.07;;
8755;SDS011;4414;42.670;23.228;2024-02-21T03:43:47;12.63;;;6.55;;
8755;SDS011;4414;42.670;23.228;2024-02-21T03:46:12;14.80;;;6.53;;
8755;SDS011;4414;42.670;23.228;2024-02-21T03:48:39;14.05;;;7.03;;
8755;SDS011;4414;42.670;23.228;2024-02-21T03:51:04;13.93;;;7.38;;
8755;SDS011;4414;42.670;23.228;2024-02-21T03:53:30;12.20;;;7.43;;
8755;SDS011;4414;42.670;23.228;2024-02-21T03:55:55;13.50;;;7.25;;
8755;SDS011;4414;42.670;23.228;2024-02-21T03:58:22;13.57;;;6.78;;
8755;SDS011;4414;42.670;23.228;2024-02-21T04:00:47;12.73;;;6.78;;
8755;SDS011;4414;42.670;23.228;2024-02-21T04:03:13;13.68;;;6.10;;
8755;SDS011;4414;42.670;23.228;2024-02-21T04:05:38;11.73;;;5.40;;
8755;SDS011;4414;42.670;23.228;2024-02-21T04:08:07;11.98;;;6.78;;
8755;SDS011;4414;42.670;23.228;2024-02-21T04:10:33;11.98;;;6.22;;
8755;SDS011;4414;42.670;23.228;2024-02-21T04:12:58;13.75;;;5.53;;
8755;SDS011;4414;42.670;23.228;2024-02-21T04:15:24;12.90;;;6.60;;
8755;SDS011;4414;42.670;23.228;2024-02-21T04:17:49;11.20;;;5.95;;
8755;SDS011;4414;42.670;23.228;2024-02-21T04:20:16;11.32;;;5.60;;
8755;SDS011;4414;42.670;23.228;2024-02-21T04:22:44;11.45;;;5.90;;
8755;SDS011;4414;42.670;23.228;2024-02-21T04:25:10;11.88;;;5.70;;
8755;SDS011;4414;42.670;23.228;2024-02-21T04:27:36;13.00;;;5.70;;
8755;SDS011;4414;42.670;23.228;2024-02-21T04:30:03;12.95;;;6.22;;
8755;SDS011;4414;42.670;23.228;2024-02-21T04:32:29;13.93;;;7.68;;
8755;SDS011;4414;42.670;23.228;2024-02-21T04:34:54;12.60;;;6.10;;
8755;SDS011;4414;42.670;23.228;2024-02-21T04:37:20;12.20;;;6.23;;
8755;SDS011;4414;42.670;23.228;2024-02-21T04:39:45;12.88;;;6.72;;
8755;SDS011;4414;42.670;23.228;2024-02-21T04:42:11;10.73;;;7.22;;
8755;SDS011;4414;42.670;23.228;2024-02-21T04:44:36;11.35;;;6.05;;
8755;SDS011;4414;42.670;23.228;2024-02-21T04:47:02;11.35;;;6.07;;
8755;SDS011;4414;42.670;23.228;2024-02-21T04:49:29;11.18;;;6.22;;
8755;SDS011;4414;42.670;23.228;2024-02-21T04:51:54;13.05;;;5.65;;
8755;SDS011;4414;42.670;23.228;2024-02-21T04:54:20;10.50;;;5.53;;
8755;SDS011;4414;42.670;23.228;2024-02-21T04:56:45;10.65;;;5.70;;
8755;SDS011;4414;42.670;23.228;2024-02-21T04:59:11;13.45;;;6.53;;
8755;SDS011;4414;42.670;23.228;2024-02-21T05:01:36;11.55;;;5.47;;
8755;SDS011;4414;42.670;23.228;2024-02-21T05:04:01;8.93;;;5.53;;
8755;SDS011;4414;42.670;23.228;2024-02-21T05:06:27;13.73;;;6.90;;
8755;SDS011;4414;42.670;23.228;2024-02-21T05:08:53;10.23;;;5.72;;
8755;SDS011;4414;42.670;23.228;2024-02-21T05:11:20;11.95;;;5.38;;
8755;SDS011;4414;42.670;23.228;2024-02-21T05:13:46;12.18;;;6.50;;
8755;SDS011;4414;42.670;23.228;2024-02-21T05:16:11;11.35;;;6.15;;
8755;SDS011;4414;42.670;23.228;2024-02-21T05:18:37;10.27;;;5.85;;
8755;SDS011;4414;42.670;23.228;2024-02-21T05:21:02;12.95;;;6.45;;
8755;SDS011;4414;42.670;23.228;2024-02-21T05:23:28;11.95;;;6.97;;
8755;SDS011;4414;42.670;23.228;2024-02-21T05:25:53;11.83;;;6.50;;
8755;SDS011;4414;42.670;23.228;2024-02-21T05:28:18;10.60;;;5.32;;
8755;SDS011;4414;42.670;23.228;2024-02-21T05:30:44;7.85;;;4.80;;
8755;SDS011;4414;42.670;23.228;2024-02-21T05:33:09;11.27;;;5.78;;
8755;SDS011;4414;42.670;23.228;2024-02-21T05:35:34;12.25;;;6.28;;
8755;SDS011;4414;42.670;23.228;2024-02-21T05:38:01;12.98;;;5.78;;
8755;SDS011;4414;42.670;23.228;2024-02-21T05:40:29;10.52;;;5.20;;
8755;SDS011;4414;42.670;23.228;2024-02-21T05:42:54;11.98;;;5.85;;
8755;SDS011;4414;42.670;23.228;2024-02-21T05:45:20;11.57;;;5.93;;
8755;SDS011;4414;42.670;23.228;2024-02-21T05:47:45;13.65;;;6.78;;
8755;SDS011;4414;42.670;23.228;2024-02-21T05:50:11;12.18;;;5.35;;
8755;SDS011;4414;42.670;23.228;2024-02-21T05:52:36;13.13;;;6.25;;
8755;SDS011;4414;42.670;23.228;2024-02-21T05:55:02;11.43;;;5.30;;
8755;SDS011;4414;42.670;23.228;2024-02-21T05:57:28;11.30;;;4.85;;
8755;SDS011;4414;42.670;23.228;2024-02-21T05:59:53;12.25;;;6.05;;
8755;SDS011;4414;42.670;23.228;2024-02-21T06:02:19;11.52;;;6.32;;
8755;SDS011;4414;42.670;23.228;2024-02-21T06:04:45;10.63;;;5.65;;
8755;SDS011;4414;42.670;23.228;2024-02-21T06:07:11;10.55;;;5.47;;
8755;SDS011;4414;42.670;23.228;2024-02-21T06:09:36;14.57;;;6.38;;
8755;SDS011;4414;42.670;23.228;2024-02-21T06:12:02;8.90;;;5.78;;
8755;SDS011;4414;42.670;23.228;2024-02-21T06:14:28;14.20;;;6.07;;
8755;SDS011;4414;42.670;23.228;2024-02-21T06:16:53;10.82;;;6.10;;
8755;SDS011;4414;42.670;23.228;2024-02-21T06:19:18;12.65;;;6.40;;
8755;SDS011;4414;42.670;23.228;2024-02-21T06:21:44;12.88;;;5.85;;
8755;SDS011;4414;42.670;23.228;2024-02-21T06:24:09;10.63;;;5.78;;
8755;SDS011;4414;42.670;23.228;2024-02-21T06:26:35;12.73;;;6.20;;
8755;SDS011;4414;42.670;23.228;2024-02-21T06:29:00;13.35;;;7.25;;
8755;SDS011;4414;42.670;23.228;2024-02-21T06:31:27;12.65;;;7.43;;
8755;SDS011;4414;42.670;23.228;2024-02-21T06:33:53;13.70;;;6.82;;
8755;SDS011;4414;42.670;23.228;2024-02-21T06:36:18;14.37;;;7.27;;
8755;SDS011;4414;42.670;23.228;2024-02-21T06:38:44;16.27;;;7.97;;
8755;SDS011;4414;42.670;23.228;2024-02-21T06:41:16;14.63;;;7.28;;
8755;SDS011;4414;42.670;23.228;2024-02-21T06:43:43;10.85;;;4.63;;
8755;SDS011;4414;42.670;23.228;2024-02-21T06:46:10;13.90;;;7.30;;
8755;SDS011;4414;42.670;23.228;2024-02-21T06:48:35;12.05;;;6.93;;
8755;SDS011;4414;42.670;23.228;2024-02-21T06:51:01;13.63;;;7.10;;
8755;SDS011;4414;42.670;23.228;2024-02-21T06:53:26;15.93;;;7.90;;
8755;SDS011;4414;42.670;23.228;2024-02-21T06:55:51;13.57;;;6.03;;
8755;SDS011;4414;42.670;23.228;2024-02-21T06:58:17;15.35;;;7.65;;
8755;SDS011;4414;42.670;23.228;2024-02-21T07:00:42;15.23;;;6.78;;
8755;SDS011;4414;42.670;23.228;2024-02-21T07:03:08;13.32;;;6.90;;
8755;SDS011;4414;42.670;23.228;2024-02-21T07:05:33;16.73;;;7.68;;
8755;SDS011;4414;42.670;23.228;2024-02-21T07:07:59;17.13;;;7.40;;
8755;SDS011;4414;42.670;23.228;2024-02-21T07:10:24;15.20;;;7.03;;
8755;SDS011;4414;42.670;23.228;2024-02-21T07:12:50;13.52;;;7.60;;
8755;SDS011;4414;42.670;23.228;2024-02-21T07:15:17;12.25;;;6.82;;
8755;SDS011;4414;42.670;23.228;2024-02-21T07:17:42;13.65;;;6.78;;
8755;SDS011;4414;42.670;23.228;2024-02-21T07:20:08;16.30;;;8.50;;
8755;SDS011;4414;42.670;23.228;2024-02-21T07:22:33;12.45;;;6.70;;
8755;SDS011;4414;42.670;23.228;2024-02-21T07:24:59;15.13;;;7.60;;
8755;SDS011;4414;42.670;23.228;2024-02-21T07:27:24;17.55;;;8.13;;
8755;SDS011;4414;42.670;23.228;2024-02-21T07:29:53;14.63;;;7.10;;
8755;SDS011;4414;42.670;23.228;2024-02-21T07:32:19;19.80;;;9.07;;
8755;SDS011;4414;42.670;23.228;2024-02-21T07:34:44;14.27;;;7.47;;
8755;SDS011;4414;42.670;23.228;2024-02-21T07:37:09;13.80;;;6.70;;
8755;SDS011;4414;42.670;23.228;2024-02-21T07:39:35;11.97;;;6.73;;
8755;SDS011;4414;42.670;23.228;2024-02-21T07:42:02;17.17;;;8.63;;
8755;SDS011;4414;42.670;23.228;2024-02-21T07:44:28;13.90;;;7.72;;
8755;SDS011;4414;42.670;23.228;2024-02-21T07:46:53;12.93;;;7.07;;
8755;SDS011;4414;42.670;23.228;2024-02-21T07:49:18;15.77;;;8.20;;
8755;SDS011;4414;42.670;23.228;2024-02-21T07:51:44;16.65;;;7.72;;
8755;SDS011;4414;42.670;23.228;2024-02-21T07:54:09;12.77;;;6.83;;
8755;SDS011;4414;42.670;23.228;2024-02-21T07:56:34;11.95;;;7.15;;
8755;SDS011;4414;42.670;23.228;2024-02-21T07:59:03;14.32;;;7.45;;
8755;SDS011;4414;42.670;23.228;2024-02-21T08:01:41;14.95;;;6.85;;
8755;SDS011;4414;42.670;23.228;2024-02-21T08:04:06;17.95;;;8.38;;
8755;SDS011;4414;42.670;23.228;2024-02-21T08:06:32;14.07;;;7.33;;
8755;SDS011;4414;42.670;23.228;2024-02-21T08:08:57;14.23;;;7.57;;
8755;SDS011;4414;42.670;23.228;2024-02-21T08:11:23;13.23;;;6.95;;
8755;SDS011;4414;42.670;23.228;2024-02-21T08:13:48;13.68;;;7.53;;
8755;SDS011;4414;42.670;23.228;2024-02-21T08:16:13;13.50;;;6.95;;
8755;SDS011;4414;42.670;23.228;2024-02-21T08:18:39;12.00;;;6.63;;
8755;SDS011;4414;42.670;23.228;2024-02-21T08:21:05;11.77;;;5.57;;
8755;SDS011;4414;42.670;23.228;2024-02-21T08:23:30;9.70;;;6.53;;
8755;SDS011;4414;42.670;23.228;2024-02-21T08:25:59;15.75;;;7.43;;
8755;SDS011;4414;42.670;23.228;2024-02-21T08:28:25;8.17;;;5.50;;
8755;SDS011;4414;42.670;23.228;2024-02-21T08:30:50;10.77;;;6.25;;
8755;SDS011;4414;42.670;23.228;2024-02-21T08:33:15;10.70;;;5.97;;
8755;SDS011;4414;42.670;23.228;2024-02-21T08:35:44;12.38;;;6.30;;
8755;SDS011;4414;42.670;23.228;2024-02-21T08:38:09;15.65;;;6.82;;
8755;SDS011;4414;42.670;23.228;2024-02-21T08:40:35;10.80;;;5.72;;
8755;SDS011;4414;42.670;23.228;2024-02-21T08:43:01;9.40;;;5.55;;
8755;SDS011;4414;42.670;23.228;2024-02-21T08:45:27;11.10;;;6.20;;
8755;SDS011;4414;42.670;23.228;2024-02-21T08:47:52;12.20;;;7.17;;
8755;SDS011;4414;42.670;23.228;2024-02-21T08:50:18;10.60;;;5.35;;
8755;SDS011;4414;42.670;23.228;2024-02-21T08:52:43;11.10;;;6.10;;
8755;SDS011;4414;42.670;23.228;2024-02-21T08:55:08;12.77;;;6.43;;
8755;SDS011;4414;42.670;23.228;2024-02-21T08:57:34;11.48;;;6.43;;
8755;SDS011;4414;42.670;23.228;2024-02-21T09:00:03;11.73;;;6.57;;
8755;SDS011;4414;42.670;23.228;2024-02-21T09:02:35;9.88;;;5.75;;
8755;SDS011;4414;42.670;23.228;2024-02-21T09:05:01;10.18;;;5.90;;
8755;SDS011;4414;42.670;23.228;2024-02-21T09:07:27;9.77;;;5.22;;
8755;SDS011;4414;42.670;23.228;2024-02-21T09:09:53;11.67;;;5.83;;
8755;SDS011;4414;42.670;23.228;2024-02-21T09:12:18;10.37;;;5.63;;
8755;SDS011;4414;42.670;23.228;2024-02-21T09:14:44;10.73;;;6.07;;
8755;SDS011;4414;42.670;23.228;2024-02-21T09:17:10;8.88;;;5.63;;
8755;SDS011;4414;42.670;23.228;2024-02-21T09:19:37;11.15;;;5.47;;
8755;SDS011;4414;42.670;23.228;2024-02-21T09:22:02;9.77;;;5.32;;
8755;SDS011;4414;42.670;23.228;2024-02-21T09:24:28;10.23;;;5.65;;
8755;SDS011;4414;42.670;23.228;2024-02-21T09:26:54;9.52;;;6.53;;
8755;SDS011;4414;42.670;23.228;2024-02-21T09:29:19;14.63;;;8.38;;
8755;SDS011;4414;42.670;23.228;2024-02-21T09:31:45;38.13;;;14.37;;
8755;SDS011;4414;42.670;23.228;2024-02-21T09:34:10;9.13;;;4.88;;
8755;SDS011;4414;42.670;23.228;2024-02-21T09:36:36;9.82;;;5.03;;
8755;SDS011;4414;42.670;23.228;2024-02-21T09:39:01;10.10;;;5.65;;
8755;SDS011;4414;42.670;23.228;2024-02-21T09:41:53;10.20;;;6.07;;
8755;SDS011;4414;42.670;23.228;2024-02-21T09:47:24;9.93;;;5.97;;
8755;SDS011;4414;42.670;23.228;2024-02-21T09:50:00;10.75;;;6.32;;
8755;SDS011;4414;42.670;23.228;2024-02-21T09:52:29;8.20;;;5.35;;
8755;SDS011;4414;42.670;23.228;2024-02-21T09:54:55;9.43;;;5.70;;
8755;SDS011;4414;42.670;23.228;2024-02-21T09:57:23;9.55;;;4.93;;
8755;SDS011;4414;42.670;23.228;2024-02-21T09:59:49;11.25;;;5.13;;
8755;SDS011;4414;42.670;23.228;2024-02-21T10:02:17;11.05;;;6.32;;
8755;SDS011;4414;42.670;23.228;2024-02-21T10:04:43;5.28;;;3.15;;
8755;SDS011;4414;42.670;23.228;2024-02-21T10:07:08;7.18;;;4.78;;
8755;SDS011;4414;42.670;23.228;2024-02-21T10:09:34;7.22;;;4.47;;
8755;SDS011;4414;42.670;23.228;2024-02-21T10:12:09;8.70;;;5.35;;
8755;SDS011;4414;42.670;23.228;2024-02-21T10:14:35;9.40;;;5.57;;
8755;SDS011;4414;42.670;23.228;2024-02-21T10:17:01;10.32;;;5.35;;
8755;SDS011;4414;42.670;23.228;2024-02-21T10:19:27;9.43;;;4.60;;
8755;SDS011;4414;42.670;23.228;2024-02-21T10:22:00;8.65;;;5.35;;
8755;SDS011;4414;42.670;23.228;2024-02-21T10:24:29;10.30;;;4.82;;
8755;SDS011;4414;42.670;23.228;2024-02-21T10:27:02;8.80;;;4.80;;
8755;SDS011;4414;42.670;23.228;2024-02-21T10:29:29;6.72;;;3.35;;
8755;SDS011;4414;42.670;23.228;2024-02-21T10:34:34;7.25;;;4.82;;
8755;SDS011;4414;42.670;23.228;2024-02-21T10:37:04;8.50;;;4.55;;
8755;SDS011;4414;42.670;23.228;2024-02-21T10:39:40;9.70;;;4.03;;
8755;SDS011;4414;42.670;23.228;2024-02-21T10:42:06;5.93;;;3.97;;
8755;SDS011;4414;42.670;23.228;2024-02-21T10:44:38;7.45;;;4.18;;
8755;SDS011;4414;42.670;23.228;2024-02-21T10:47:07;6.20;;;4.30;;
8755;SDS011;4414;42.670;23.228;2024-02-21T10:49:34;7.72;;;4.38;;
8755;SDS011;4414;42.670;23.228;2024-02-21T10:52:14;6.93;;;4.38;;
8755;SDS011;4414;42.670;23.228;2024-02-21T10:55:03;6.53;;;3.35;;
8755;SDS011;4414;42.670;23.228;2024-02-21T10:57:29;5.80;;;3.63;;
8755;SDS011;4414;42.670;23.228;2024-02-21T11:00:06;7.05;;;4.00;;
8755;SDS011;4414;42.670;23.228;2024-02-21T11:02:33;6.65;;;3.33;;
8755;SDS011;4414;42.670;23.228;2024-02-21T11:04:59;7.28;;;3.60;;
8755;SDS011;4414;42.670;23.228;2024-02-21T11:07:26;4.85;;;2.60;;
8755;SDS011;4414;42.670;23.228;2024-02-21T11:09:52;6.22;;;3.35;;
8755;SDS011;4414;42.670;23.228;2024-02-21T11:12:23;6.45;;;3.53;;
8755;SDS011;4414;42.670;23.228;2024-02-21T11:14:50;9.43;;;3.67;;
8755;SDS011;4414;42.670;23.228;2024-02-21T11:17:16;5.78;;;3.95;;
8755;SDS011;4414;42.670;23.228;2024-02-21T11:19:45;8.55;;;3.78;;
8755;SDS011;4414;42.670;23.228;2024-02-21T11:22:14;4.53;;;3.05;;
8755;SDS011;4414;42.670;23.228;2024-02-21T11:24:44;5.05;;;3.00;;
8755;SDS011;4414;42.670;23.228;2024-02-21T11:27:19;5.55;;;3.20;;
8755;SDS011;4414;42.670;23.228;2024-02-21T11:29:54;4.63;;;3.15;;
8755;SDS011;4414;42.670;23.228;2024-02-21T11:32:21;5.97;;;2.85;;
8755;SDS011;4414;42.670;23.228;2024-02-21T11:34:56;5.07;;;3.30;;
8755;SDS011;4414;42.670;23.228;2024-02-21T11:37:26;5.50;;;3.55;;
8755;SDS011;4414;42.670;23.228;2024-02-21T11:39:53;5.75;;;3.70;;
8755;SDS011;4414;42.670;23.228;2024-02-21T11:42:19;3.72;;;2.92;;
8755;SDS011;4414;42.670;23.228;2024-02-21T11:44:45;4.82;;;2.90;;
8755;SDS011;4414;42.670;23.228;2024-02-21T11:47:11;4.63;;;3.00;;
8755;SDS011;4414;42.670;23.228;2024-02-21T11:49:43;6.65;;;3.63;;
8755;SDS011;4414;42.670;23.228;2024-02-21T11:52:14;6.05;;;3.17;;
8755;SDS011;4414;42.670;23.228;2024-02-21T11:54:44;7.07;;;2.70;;
8755;SDS011;4414;42.670;23.228;2024-02-21T11:57:33;5.50;;;2.92;;
8755;SDS011;4414;42.670;23.228;2024-02-21T12:00:14;4.32;;;2.72;;
8755;SDS011;4414;42.670;23.228;2024-02-21T12:02:46;4.18;;;2.88;;
8755;SDS011;4414;42.670;23.228;2024-02-21T12:05:12;7.22;;;3.17;;
8755;SDS011;4414;42.670;23.228;2024-02-21T12:07:38;5.15;;;3.05;;
8755;SDS011;4414;42.670;23.228;2024-02-21T12:10:10;5.07;;;2.92;;
8755;SDS011;4414;42.670;23.228;2024-02-21T12:12:36;5.65;;;3.20;;
8755;SDS011;4414;42.670;23.228;2024-02-21T12:15:03;5.30;;;3.28;;
8755;SDS011;4414;42.670;23.228;2024-02-21T12:17:30;5.90;;;2.97;;
8755;SDS011;4414;42.670;23.228;2024-02-21T12:20:05;5.38;;;3.03;;
8755;SDS011;4414;42.670;23.228;2024-02-21T12:22:44;5.70;;;2.58;;
8755;SDS011;4414;42.670;23.228;2024-02-21T12:25:28;5.10;;;3.13;;
8755;SDS011;4414;42.670;23.228;2024-02-21T12:27:54;6.25;;;3.25;;
8755;SDS011;4414;42.670;23.228;2024-02-21T12:30:21;4.35;;;2.78;;
8755;SDS011;4414;42.670;23.228;2024-02-21T12:32:46;6.07;;;3.70;;
8755;SDS011;4414;42.670;23.228;2024-02-21T12:35:13;5.95;;;3.05;;
8755;SDS011;4414;42.670;23.228;2024-02-21T12:37:39;5.28;;;2.97;;
8755;SDS011;4414;42.670;23.228;2024-02-21T12:40:05;6.15;;;3.75;;
8755;SDS011;4414;42.670;23.228;2024-02-21T12:42:33;5.97;;;3.25;;
8755;SDS011;4414;42.670;23.228;2024-02-21T12:45:01;5.30;;;3.38;;
8755;SDS011;4414;42.670;23.228;2024-02-21T12:47:29;5.82;;;3.42;;
8755;SDS011;4414;42.670;23.228;2024-02-21T12:50:09;7.20;;;3.50;;
8755;SDS011;4414;42.670;23.228;2024-02-21T12:52:52;9.95;;;3.42;;
8755;SDS011;4414;42.670;23.228;2024-02-21T12:55:18;7.30;;;3.70;;
8755;SDS011;4414;42.670;23.228;2024-02-21T12:57:43;6.82;;;3.22;;
8755;SDS011;4414;42.670;23.228;2024-02-21T13:00:09;4.55;;;2.67;;
8755;SDS011;4414;42.670;23.228;2024-02-21T13:02:36;6.28;;;2.97;;
8755;SDS011;4414;42.670;23.228;2024-02-21T13:05:01;4.97;;;2.67;;
8755;SDS011;4414;42.670;23.228;2024-02-21T13:07:28;4.90;;;2.78;;
8755;SDS011;4414;42.670;23.228;2024-02-21T13:09:54;7.68;;;3.85;;
8755;SDS011;4414;42.670;23.228;2024-02-21T13:12:19;4.80;;;3.10;;
8755;SDS011;4414;42.670;23.228;2024-02-21T13:14:45;7.30;;;4.05;;
8755;SDS011;4414;42.670;23.228;2024-02-21T13:17:10;6.18;;;4.55;;
8755;SDS011;4414;42.670;23.228;2024-02-21T13:19:36;6.18;;;3.70;;
8755;SDS011;4414;42.670;23.228;2024-02-21T13:22:01;7.35;;;3.67;;
8755;SDS011;4414;42.670;23.228;2024-02-21T13:24:27;5.65;;;3.80;;
8755;SDS011;4414;42.670;23.228;2024-02-21T13:26:53;6.72;;;3.60;;
8755;SDS011;4414;42.670;23.228;2024-02-21T13:29:18;6.28;;;4.55;;
8755;SDS011;4414;42.670;23.228;2024-02-21T13:31:45;5.78;;;2.65;;
8755;SDS011;4414;42.670;23.228;2024-02-21T13:34:11;7.13;;;3.50;;
8755;SDS011;4414;42.670;23.228;2024-02-21T13:36:36;5.63;;;3.17;;
8755;SDS011;4414;42.670;23.228;2024-02-21T13:39:01;4.60;;;3.08;;
8755;SDS011;4414;42.670;23.228;2024-02-21T13:41:30;4.65;;;2.30;;
8755;SDS011;4414;42.670;23.228;2024-02-21T13:43:56;4.72;;;2.83;;
8755;SDS011;4414;42.670;23.228;2024-02-21T13:46:21;4.53;;;1.95;;
8755;SDS011;4414;42.670;23.228;2024-02-21T13:48:47;4.72;;;2.58;;
8755;SDS011;4414;42.670;23.228;2024-02-21T13:51:12;4.60;;;2.60;;
8755;SDS011;4414;42.670;23.228;2024-02-21T13:53:37;3.85;;;2.88;;
8755;SDS011;4414;42.670;23.228;2024-02-21T13:56:03;5.63;;;2.97;;
8755;SDS011;4414;42.670;23.228;2024-02-21T13:58:29;4.32;;;2.97;;
8755;SDS011;4414;42.670;23.228;2024-02-21T14:00:54;5.00;;;3.10;;
8755;SDS011;4414;42.670;23.228;2024-02-21T14:03:21;7.60;;;3.63;;
8755;SDS011;4414;42.670;23.228;2024-02-21T14:05:46;7.65;;;3.97;;
8755;SDS011;4414;42.670;23.228;2024-02-21T14:08:13;6.78;;;4.30;;
8755;SDS011;4414;42.670;23.228;2024-02-21T14:10:39;7.80;;;4.07;;
8755;SDS011;4414;42.670;23.228;2024-02-21T14:13:05;6.05;;;3.75;;
8755;SDS011;4414;42.670;23.228;2024-02-21T14:15:30;5.50;;;3.50;;
8755;SDS011;4414;42.670;23.228;2024-02-21T14:17:56;5.28;;;2.97;;
8755;SDS011;4414;42.670;23.228;2024-02-21T14:20:21;6.70;;;2.83;;
8755;SDS011;4414;42.670;23.228;2024-02-21T14:22:46;5.43;;;2.75;;
8755;SDS011;4414;42.670;23.228;2024-02-21T14:25:12;6.10;;;3.38;;
8755;SDS011;4414;42.670;23.228;2024-02-21T14:27:37;6.47;;;2.58;;
8755;SDS011;4414;42.670;23.228;2024-02-21T14:30:03;6.35;;;3.95;;
8755;SDS011;4414;42.670;23.228;2024-02-21T14:32:29;5.68;;;3.33;;
8755;SDS011;4414;42.670;23.228;2024-02-21T14:34:54;7.38;;;3.55;;
8755;SDS011;4414;42.670;23.228;2024-02-21T14:37:19;5.50;;;2.90;;
8755;SDS011;4414;42.670;23.228;2024-02-21T14:39:46;6.72;;;3.25;;
8755;SDS011;4414;42.670;23.228;2024-02-21T14:42:12;6.22;;;3.35;;
8755;SDS011;4414;42.670;23.228;2024-02-21T14:44:37;7.75;;;3.30;;
8755;SDS011;4414;42.670;23.228;2024-02-21T14:47:03;16.38;;;8.13;;
8755;SDS011;4414;42.670;23.228;2024-02-21T14:49:28;6.38;;;3.53;;
8755;SDS011;4414;42.670;23.228;2024-02-21T14:51:54;8.73;;;4.80;;
8755;SDS011;4414;42.670;23.228;2024-02-21T14:54:20;8.10;;;3.38;;
8755;SDS011;4414;42.670;23.228;2024-02-21T14:56:45;7.63;;;3.80;;
8755;SDS011;4414;42.670;23.228;2024-02-21T14:59:14;7.30;;;3.60;;
8755;SDS011;4414;42.670;23.228;2024-02-21T15:01:39;5.03;;;3.35;;